Time;durP1;ratioP1;P1;durP2;ratioP2;P2;SDS_P1;SDS_P2;PMS_P1;PMS_P2;Temp;Humidity;BMP_temperature;BMP_pressure;BME280_temperature;BME280_humidity;BME280_pressure;Samples;Min_cycle;Max_cycle;Signal;HPM_P1;HPM_P2
2023/03/02 00:00:31;;;;;;;;;;;0.90;99.90;;;;;;5069779;28;20307;-67
2023/03/02 00:03:00;;;;;;;;;;;0.90;99.90;;;;;;5070516;28;19931;-67
2023/03/02 00:05:27;;;;;;;;;;;0.90;99.90;;;;;;5073700;28;19954;-67
2023/03/02 00:07:54;;;;;;;;;;;0.90;99.90;;;;;;5071595;28;19924;-67
2023/03/02 00:10:21;;;;;;;;;;;0.90;99.90;;;;;;5074210;28;19924;-67
2023/03/02 00:12:48;;;;;;;;;;;0.90;99.90;;;;;;5076506;28;19932;-67
2023/03/02 00:15:15;;;;;;;;;;;0.90;99.90;;;;;;5074042;28;19925;-67
2023/03/02 00:17:41;;;;;;;;;;;0.90;99.90;;;;;;5072106;28;19928;-67
2023/03/02 00:20:11;;;;;;;;;;;0.80;99.90;;;;;;5074085;28;19931;-67
2023/03/02 00:22:37;;;;;;;;;;;0.80;99.90;;;;;;5073860;28;20283;-67
2023/03/02 00:25:05;;;;;;;;;;;0.80;99.90;;;;;;5073966;28;19931;-67
2023/03/02 00:27:31;;;;;;;;;;;0.80;99.90;;;;;;5073630;28;19924;-66
2023/03/02 00:29:58;;;;;;;;;;;0.70;99.90;;;;;;5074069;28;20394;-67
2023/03/02 00:32:25;;;;;;;;;;;0.70;99.90;;;;;;5073957;28;19925;-67
2023/03/02 00:34:52;;;;;;;;;;;0.70;99.90;;;;;;5073563;28;19924;-67
2023/03/02 00:37:20;;;;;;;;;;;0.70;99.90;;;;;;5076097;28;19924;-67
2023/03/02 00:39:47;;;;;;;;;;;0.60;99.90;;;;;;5073559;28;19928;-67
2023/03/02 00:42:14;;;;;;;;;;;0.60;99.90;;;;;;5073689;28;19929;-67
2023/03/02 00:44:41;;;;;;;;;;;0.60;99.90;;;;;;5073212;28;19924;-67
2023/03/02 00:47:07;;;;;;;;;;;0.60;99.90;;;;;;5073147;28;19985;-67
2023/03/02 00:49:35;;;;;;;;;;;0.60;99.90;;;;;;5073520;28;19928;-67
2023/03/02 00:52:02;;;;;;;;;;;0.50;99.90;;;;;;5073280;28;19928;-67
2023/03/02 00:54:31;;;;;;;;;;;0.50;99.90;;;;;;5073347;28;19936;-66
2023/03/02 00:56:57;;;;;;;;;;;0.60;99.90;;;;;;5072976;28;19928;-67
2023/03/02 00:59:27;;;;;;;;;;;0.50;99.90;;;;;;5068316;28;19924;-68
2023/03/02 01:02:07;;;;;;;;;;;0.50;99.90;;;;;;5080924;28;19962;-68
2023/03/02 01:04:36;;;;;;;;;;;0.50;99.90;;;;;;5075877;28;19930;-67
2023/03/02 01:07:04;;;;;;;;;;;0.40;99.90;;;;;;5072943;28;19924;-67
2023/03/02 01:09:32;;;;;;;;;;;0.50;99.90;;;;;;5072317;28;19924;-67
2023/03/02 01:11:59;;;;;;;;;;;0.50;99.90;;;;;;5073072;28;19924;-67
2023/03/02 01:14:26;;;;;;;;;;;0.50;99.90;;;;;;5072379;28;19925;-67
2023/03/02 01:16:53;;;;;;;;;;;0.50;99.90;;;;;;5069942;28;19928;-67
2023/03/02 01:19:20;;;;;;;;;;;0.40;99.90;;;;;;5071615;28;19925;-68
2023/03/02 01:21:47;;;;;;;;;;;0.40;99.90;;;;;;5072504;28;19967;-69
2023/03/02 01:24:14;;;;;;;;;;;0.40;99.90;;;;;;5072564;28;19924;-67
2023/03/02 01:26:42;;;;;;;;;;;0.40;99.90;;;;;;5066589;28;19932;-67
2023/03/02 01:29:10;;;;;;;;;;;0.30;99.90;;;;;;5072430;28;20030;-66
2023/03/02 01:31:37;;;;;;;;;;;0.40;99.90;;;;;;5075163;28;19929;-67
2023/03/02 01:34:04;;;;;;;;;;;0.50;99.90;;;;;;5072383;28;19924;-67
2023/03/02 01:36:31;;;;;;;;;;;0.50;99.90;;;;;;5072417;28;19924;-66
2023/03/02 01:38:57;;;;;;;;;;;0.50;99.90;;;;;;5069960;28;19932;-67
2023/03/02 01:41:24;;;;;;;;;;;0.50;99.90;;;;;;5072228;28;19925;-67
2023/03/02 01:43:52;;;;;;;;;;;0.50;99.90;;;;;;5072304;28;19974;-67
2023/03/02 01:46:20;;;;;;;;;;;0.50;99.90;;;;;;5072319;28;19931;-66
2023/03/02 01:48:54;;;;;;;;;;;0.50;99.90;;;;;;5072014;28;20288;-67
2023/03/02 01:51:31;;;;;;;;;;;0.40;99.90;;;;;;5075207;28;19935;-67
2023/03/02 01:54:01;;;;;;;;;;;0.50;99.90;;;;;;5072024;28;20023;-67
2023/03/02 01:56:30;;;;;;;;;;;0.40;99.90;;;;;;5071996;28;19940;-67
2023/03/02 01:59:01;;;;;;;;;;;0.50;99.90;;;;;;5071901;28;19928;-67
2023/03/02 02:01:28;;;;;;;;;;;0.50;99.90;;;;;;5071928;28;19931;-67
2023/03/02 02:03:55;;;;;;;;;;;0.50;99.90;;;;;;5065197;28;19924;-67
2023/03/02 02:06:24;;;;;;;;;;;0.40;99.90;;;;;;5071720;28;20349;-68
2023/03/02 02:08:52;;;;;;;;;;;0.40;99.90;;;;;;5073588;28;19924;-68
2023/03/02 02:11:19;;;;;;;;;;;0.50;99.90;;;;;;5071815;28;20302;-67
2023/03/02 02:13:58;;;;;;;;;;;0.50;99.90;;;;;;5071895;28;19925;-67
2023/03/02 02:16:26;;;;;;;;;;;0.40;99.90;;;;;;5068047;28;19947;-67
2023/03/02 02:18:53;;;;;;;;;;;0.40;99.90;;;;;;5079346;28;19924;-67
2023/03/02 02:21:20;;;;;;;;;;;0.30;99.90;;;;;;5071666;28;19931;-66
2023/03/02 02:23:51;;;;;;;;;;;0.20;99.90;;;;;;5071381;28;19933;-67
2023/03/02 02:26:23;;;;;;;;;;;0.20;99.90;;;;;;5070705;28;19982;-68
2023/03/02 02:28:56;;;;;;;;;;;0.10;99.90;;;;;;5068665;28;19924;-68
2023/03/02 02:31:26;;;;;;;;;;;0.10;99.90;;;;;;5071668;28;19924;-67
2023/03/02 02:33:55;;;;;;;;;;;-0.10;99.90;;;;;;5068879;28;19925;-67
2023/03/02 02:36:23;;;;;;;;;;;-0.20;99.90;;;;;;5071224;28;19925;-67
2023/03/02 02:38:51;;;;;;;;;;;-0.30;99.90;;;;;;5071413;28;20391;-68
2023/03/02 02:41:24;;;;;;;;;;;-0.40;99.90;;;;;;5073788;28;19924;-67
2023/03/02 02:43:51;;;;;;;;;;;-0.50;99.90;;;;;;5071520;28;19924;-67
2023/03/02 02:46:18;;;;;;;;;;;-0.60;99.90;;;;;;5073611;28;19935;-67
2023/03/02 02:48:44;;;;;;;;;;;-0.60;99.90;;;;;;5071151;28;20303;-67
2023/03/02 02:51:16;;;;;;;;;;;-0.60;99.90;;;;;;5070036;28;19947;-67
2023/03/02 02:53:44;;;;;;;;;;;-0.60;99.90;;;;;;5070442;28;19959;-67
2023/03/02 02:56:12;;;;;;;;;;;-0.60;99.90;;;;;;5071129;28;20350;-67
2023/03/02 02:58:43;;;;;;;;;;;-0.60;99.90;;;;;;5073850;28;19925;-67
2023/03/02 03:01:12;;;;;;;;;;;-0.70;99.90;;;;;;5071224;28;19924;-67
2023/03/02 03:03:39;;;;;;;;;;;-0.60;99.90;;;;;;5070672;28;19925;-67
2023/03/02 03:06:14;;;;;;;;;;;-0.60;99.90;;;;;;5070996;28;19924;-68
2023/03/02 03:08:50;;;;;;;;;;;-0.60;99.90;;;;;;5073333;28;19924;-67
2023/03/02 03:11:25;;;;;;;;;;;-0.60;99.90;;;;;;5067949;28;20273;-67
2023/03/02 03:13:57;;;;;;;;;;;-0.70;99.90;;;;;;5070588;28;19978;-67
2023/03/02 03:16:24;;;;;;;;;;;-0.70;99.90;;;;;;5070790;28;20019;-68
2023/03/02 03:18:51;;;;;;;;;;;-0.80;99.90;;;;;;5070473;28;19924;-67
2023/03/02 03:21:18;;;;;;;;;;;-0.90;99.90;;;;;;5070639;28;20435;-68
2023/03/02 03:23:45;;;;;;;;;;;-0.90;99.90;;;;;;5070425;28;19924;-66
2023/03/02 03:26:12;;;;;;;;;;;-1.00;99.90;;;;;;5070378;28;20051;-68
2023/03/02 03:28:39;;;;;;;;;;;-1.10;99.90;;;;;;5070547;28;19928;-66
2023/03/02 03:31:07;;;;;;;;;;;-1.10;99.90;;;;;;5070424;28;19954;-67
2023/03/02 03:33:34;;;;;;;;;;;-1.10;99.90;;;;;;5070350;28;19924;-68
2023/03/02 03:36:01;;;;;;;;;;;-1.10;99.90;;;;;;5070209;28;19978;-68
2023/03/02 03:38:28;;;;;;;;;;;-1.10;99.90;;;;;;5070341;28;19932;-67
2023/03/02 03:40:55;;;;;;;;;;;-1.00;99.90;;;;;;5070321;28;19924;-67
2023/03/02 03:43:22;;;;;;;;;;;-1.00;99.90;;;;;;5070477;28;19924;-66
2023/03/02 03:45:52;;;;;;;;;;;-0.90;99.90;;;;;;5070131;28;19925;-67
2023/03/02 03:48:21;;;;;;;;;;;-0.90;99.90;;;;;;5070090;28;19936;-68
2023/03/02 03:50:49;;;;;;;;;;;-1.00;99.90;;;;;;5070188;28;19929;-67
2023/03/02 03:53:16;;;;;;;;;;;-1.00;99.90;;;;;;5070020;28;19925;-69
2023/03/02 03:55:42;;;;;;;;;;;-1.10;99.90;;;;;;5070171;28;19932;-67
2023/03/02 03:58:09;;;;;;;;;;;-1.10;99.90;;;;;;5067667;28;20391;-67
2023/03/02 04:00:36;;;;;;;;;;;-1.20;99.90;;;;;;5072792;28;20015;-67
2023/03/02 04:03:08;;;;;;;;;;;-1.30;99.90;;;;;;5070458;28;20403;-67
2023/03/02 04:05:36;;;;;;;;;;;-1.30;99.90;;;;;;5069857;28;19982;-68
2023/03/02 04:08:03;;;;;;;;;;;-1.30;99.90;;;;;;5070110;28;19931;-68
2023/03/02 04:10:31;;;;;;;;;;;-1.30;99.90;;;;;;5067040;28;19958;-67
2023/03/02 04:12:58;;;;;;;;;;;-1.30;99.90;;;;;;5069379;28;19924;-67
2023/03/02 04:15:25;;;;;;;;;;;-1.30;99.90;;;;;;5070087;28;19924;-67
2023/03/02 04:17:52;;;;;;;;;;;-1.10;99.90;;;;;;5070097;28;19988;-67
2023/03/02 04:20:22;;;;;;;;;;;-1.00;99.90;;;;;;5072845;28;19924;-67
2023/03/02 04:22:54;;;;;;;;;;;-0.90;99.90;;;;;;5070236;28;19956;-67
2023/03/02 04:25:23;;;;;;;;;;;-0.90;99.90;;;;;;5069810;28;19931;-67
2023/03/02 04:27:53;;;;;;;;;;;-0.90;99.90;;;;;;5070049;28;19935;-67
2023/03/02 04:30:22;;;;;;;;;;;-0.90;99.90;;;;;;5070100;28;19924;-68
2023/03/02 04:32:49;;;;;;;;;;;-0.90;99.90;;;;;;5069752;28;19963;-67
2023/03/02 04:35:22;;;;;;;;;;;-0.80;99.90;;;;;;5073009;28;19924;-69
2023/03/02 04:37:49;;;;;;;;;;;-0.80;99.90;;;;;;5069448;28;19925;-67
2023/03/02 04:40:17;;;;;;;;;;;-0.90;99.90;;;;;;5072884;28;19932;-67
2023/03/02 04:42:44;;;;;;;;;;;-0.90;99.90;;;;;;5069611;28;19925;-68
2023/03/02 04:45:12;;;;;;;;;;;-0.90;99.90;;;;;;5069342;28;19956;-69
2023/03/02 04:47:38;;;;;;;;;;;-0.90;99.90;;;;;;5065399;28;19925;-67
2023/03/02 04:50:06;;;;;;;;;;;-0.90;99.90;;;;;;5071286;28;19932;-67
2023/03/02 04:52:32;;;;;;;;;;;-0.90;99.90;;;;;;5073651;28;19928;-67
2023/03/02 04:54:59;;;;;;;;;;;-0.90;99.90;;;;;;5073183;28;19932;-67
2023/03/02 04:57:27;;;;;;;;;;;-0.90;99.90;;;;;;5072991;28;19925;-67
2023/03/02 04:59:54;;;;;;;;;;;-0.90;99.90;;;;;;5070688;28;19924;-67
2023/03/02 05:02:21;;;;;;;;;;;-0.90;99.90;;;;;;5069222;28;19928;-67
2023/03/02 05:04:47;;;;;;;;;;;-0.90;99.90;;;;;;5072952;28;19924;-68
2023/03/02 05:07:14;;;;;;;;;;;-0.90;99.90;;;;;;5072744;28;19956;-67
2023/03/02 05:09:41;;;;;;;;;;;-1.00;99.90;;;;;;5077622;28;19932;-67
2023/03/02 05:12:08;;;;;;;;;;;-0.90;99.90;;;;;;5070720;28;19974;-68
2023/03/02 05:14:36;;;;;;;;;;;-1.00;99.90;;;;;;5073210;28;19924;-68
2023/03/02 05:17:03;;;;;;;;;;;-0.90;99.90;;;;;;5072422;28;19924;-68
2023/03/02 05:19:30;;;;;;;;;;;-0.90;99.90;;;;;;5073081;28;20296;-67
2023/03/02 05:21:56;;;;;;;;;;;-0.90;99.90;;;;;;5074989;28;20273;-68
2023/03/02 05:24:23;;;;;;;;;;;-0.90;99.90;;;;;;5073454;28;19925;-65
2023/03/02 05:26:50;;;;;;;;;;;-0.90;99.90;;;;;;5072506;28;19924;-67
2023/03/02 05:29:16;;;;;;;;;;;-0.90;99.90;;;;;;5072923;28;19929;-68
2023/03/02 05:31:45;;;;;;;;;;;-0.90;99.90;;;;;;5072864;28;19924;-67
2023/03/02 05:34:14;;;;;;;;;;;-1.00;99.90;;;;;;5072302;28;19928;-68
2023/03/02 05:36:41;;;;;;;;;;;-1.10;99.90;;;;;;5072677;28;19934;-67
2023/03/02 05:39:08;;;;;;;;;;;-1.10;99.90;;;;;;5072785;28;19933;-66
2023/03/02 05:41:36;;;;;;;;;;;-1.10;99.90;;;;;;5071399;28;20272;-67
2023/03/02 05:44:02;;;;;;;;;;;-1.10;99.90;;;;;;5064174;28;20306;-65
2023/03/02 05:46:30;;;;;;;;;;;-1.10;99.90;;;;;;5075481;28;19932;-67
2023/03/02 05:48:58;;;;;;;;;;;-1.10;99.90;;;;;;5069073;28;19931;-68
2023/03/02 05:51:24;;;;;;;;;;;-1.10;99.90;;;;;;5072221;28;19925;-68
2023/03/02 05:53:51;;;;;;;;;;;-1.20;99.90;;;;;;5072560;28;20021;-67
2023/03/02 05:56:19;;;;;;;;;;;-1.10;99.90;;;;;;5072456;28;19977;-67
2023/03/02 05:58:46;;;;;;;;;;;-1.10;99.90;;;;;;5070832;28;19963;-67
2023/03/02 06:01:13;;;;;;;;;;;-1.10;99.90;;;;;;5061948;28;19924;-66
2023/03/02 06:03:39;;;;;;;;;;;-1.20;99.90;;;;;;5070772;28;19931;-67
2023/03/02 06:06:07;;;;;;;;;;;-1.20;99.90;;;;;;5074567;28;19928;-67
2023/03/02 06:08:39;;;;;;;;;;;-1.30;99.90;;;;;;5071390;28;19974;-69
2023/03/02 06:11:07;;;;;;;;;;;-1.30;99.90;;;;;;5069955;28;19925;-66
2023/03/02 06:13:33;;;;;;;;;;;-1.40;99.90;;;;;;5071436;28;19925;-66
2023/03/02 06:16:00;;;;;;;;;;;-1.40;99.90;;;;;;5071774;28;20311;-66
2023/03/02 06:18:27;;;;;;;;;;;-1.50;99.90;;;;;;5071751;28;19928;-67
2023/03/02 06:20:54;;;;;;;;;;;-1.60;99.90;;;;;;5081286;28;20037;-66
2023/03/02 06:23:22;;;;;;;;;;;-1.70;99.90;;;;;;5071542;28;19925;-69
2023/03/02 06:25:49;;;;;;;;;;;-1.70;99.90;;;;;;5071385;28;19982;-66
2023/03/02 06:28:18;;;;;;;;;;;-1.70;99.90;;;;;;5073159;28;19978;-69
2023/03/02 06:30:47;;;;;;;;;;;-1.70;99.90;;;;;;5076390;28;19924;-68
2023/03/02 06:33:14;;;;;;;;;;;-1.60;99.90;;;;;;5076011;28;20314;-68
2023/03/02 06:35:40;;;;;;;;;;;-1.60;99.90;;;;;;5078626;28;19925;-68
2023/03/02 06:38:07;;;;;;;;;;;-1.60;99.90;;;;;;5075446;28;19924;-66
2023/03/02 06:40:35;;;;;;;;;;;-1.60;99.90;;;;;;5070057;28;20353;-67
2023/03/02 06:43:02;;;;;;;;;;;-1.60;99.90;;;;;;5072792;28;19936;-67
2023/03/02 06:45:32;;;;;;;;;;;-1.60;99.90;;;;;;5070656;28;19924;-66
2023/03/02 06:47:59;;;;;;;;;;;-1.50;99.90;;;;;;5071376;28;19939;-67
2023/03/02 06:50:26;;;;;;;;;;;-1.60;99.90;;;;;;5071325;28;19932;-66
2023/03/02 06:52:53;;;;;;;;;;;-1.60;99.90;;;;;;5072893;28;19951;-67
2023/03/02 06:55:19;;;;;;;;;;;-1.50;99.90;;;;;;5072861;28;19970;-66
2023/03/02 06:57:48;;;;;;;;;;;-1.50;99.90;;;;;;5072721;28;20167;-67
2023/03/02 07:00:16;;;;;;;;;;;-1.40;99.90;;;;;;5072904;28;19978;-66
2023/03/02 07:02:43;;;;;;;;;;;-1.40;99.90;;;;;;5070027;28;20013;-67
2023/03/02 07:05:09;;;;;;;;;;;-1.40;99.90;;;;;;5072372;28;19925;-67
2023/03/02 07:07:36;;;;;;;;;;;-1.40;99.90;;;;;;5074462;28;19981;-67
2023/03/02 07:10:03;;;;;;;;;;;-1.30;99.90;;;;;;5072580;28;19928;-66
2023/03/02 07:12:30;;;;;;;;;;;-1.30;99.90;;;;;;5074894;28;19971;-67
2023/03/02 07:14:58;;;;;;;;;;;-1.20;99.90;;;;;;5074804;28;19924;-67
2023/03/02 07:17:25;;;;;;;;;;;-1.10;99.90;;;;;;5072256;28;19928;-67
2023/03/02 07:19:51;;;;;;;;;;;-1.00;99.90;;;;;;5070891;28;19924;-69
2023/03/02 07:22:18;;;;;;;;;;;-0.90;99.90;;;;;;5072412;28;19950;-67
2023/03/02 07:24:45;;;;;;;;;;;-0.70;99.90;;;;;;5072159;28;19947;-67
2023/03/02 07:27:11;;;;;;;;;;;-0.60;99.90;;;;;;5072225;28;19925;-65
2023/03/02 07:29:38;;;;;;;;;;;-0.50;99.90;;;;;;5074075;28;19928;-69
2023/03/02 07:32:07;;;;;;;;;;;-0.50;99.90;;;;;;5073721;28;19924;-67
2023/03/02 07:34:33;;;;;;;;;;;-0.40;99.90;;;;;;5075614;28;19924;-67
2023/03/02 07:37:00;;;;;;;;;;;-0.30;99.90;;;;;;5072117;28;19947;-67
2023/03/02 07:39:27;;;;;;;;;;;-0.30;99.90;;;;;;5069388;28;20003;-67
2023/03/02 07:41:57;;;;;;;;;;;-0.20;99.90;;;;;;5068007;28;19981;-67
2023/03/02 07:44:23;;;;;;;;;;;-0.20;99.90;;;;;;5068456;28;20342;-66
2023/03/02 07:46:50;;;;;;;;;;;-0.10;99.90;;;;;;5075697;28;19925;-67
2023/03/02 07:49:18;;;;;;;;;;;-0.10;99.90;;;;;;5069215;28;19950;-67
2023/03/02 07:51:45;;;;;;;;;;;0.00;99.90;;;;;;5072036;28;19928;-67
2023/03/02 07:54:12;;;;;;;;;;;0.10;99.90;;;;;;5071705;28;19925;-66
2023/03/02 07:56:39;;;;;;;;;;;0.30;99.90;;;;;;5071846;28;19970;-67
2023/03/02 07:59:06;;;;;;;;;;;0.40;99.90;;;;;;5074708;28;19931;-69
2023/03/02 08:01:32;;;;;;;;;;;0.50;99.90;;;;;;5072808;28;19978;-67
2023/03/02 08:03:59;;;;;;;;;;;0.50;99.90;;;;;;5074318;28;20371;-67
2023/03/02 08:06:27;;;;;;;;;;;0.60;99.90;;;;;;5072768;28;19968;-68
2023/03/02 08:08:53;;;;;;;;;;;0.70;99.90;;;;;;5067430;28;19928;-69
2023/03/02 08:11:20;;;;;;;;;;;0.80;99.90;;;;;;5072318;28;19968;-69
2023/03/02 08:13:47;;;;;;;;;;;0.90;99.90;;;;;;5070917;28;19924;-67
2023/03/02 08:16:14;;;;;;;;;;;0.90;99.90;;;;;;5074303;28;20253;-67
2023/03/02 08:18:42;;;;;;;;;;;1.00;99.90;;;;;;5069273;28;19924;-67
2023/03/02 08:21:12;;;;;;;;;;;1.10;99.90;;;;;;5072405;28;20386;-67
2023/03/02 08:23:41;;;;;;;;;;;1.20;99.90;;;;;;5073109;28;19946;-67
2023/03/02 08:26:08;;;;;;;;;;;1.30;99.90;;;;;;5074555;28;19924;-67
2023/03/02 08:28:34;;;;;;;;;;;1.40;99.90;;;;;;5076666;28;19925;-67
2023/03/02 08:31:02;;;;;;;;;;;1.60;99.90;;;;;;5077258;28;19989;-67
2023/03/02 08:33:29;;;;;;;;;;;1.70;99.90;;;;;;5072670;28;20403;-68
2023/03/02 08:35:56;;;;;;;;;;;1.80;99.90;;;;;;5077568;28;19931;-66
2023/03/02 08:38:23;;;;;;;;;;;1.90;99.90;;;;;;5072522;28;19932;-67
2023/03/02 08:40:52;;;;;;;;;;;2.00;99.90;;;;;;5081054;28;20027;-66
2023/03/02 08:43:18;;;;;;;;;;;2.10;99.90;;;;;;5076991;28;20346;-66
2023/03/02 08:45:45;;;;;;;;;;;2.20;99.90;;;;;;5077855;28;19982;-67
2023/03/02 08:48:12;;;;;;;;;;;2.40;99.90;;;;;;5072764;28;19924;-69
2023/03/02 08:50:39;;;;;;;;;;;2.50;99.90;;;;;;5083051;28;19929;-67
2023/03/02 08:53:06;;;;;;;;;;;2.50;99.90;;;;;;5072528;28;19932;-65
2023/03/02 08:55:34;;;;;;;;;;;2.60;99.90;;;;;;5073153;28;19981;-67
2023/03/02 08:58:02;;;;;;;;;;;2.70;99.90;;;;;;5073665;28;19925;-67
2023/03/02 09:00:29;;;;;;;;;;;2.80;99.90;;;;;;5075069;28;19924;-68
2023/03/02 09:02:56;;;;;;;;;;;2.90;99.90;;;;;;5077736;28;20472;-67
2023/03/02 09:05:23;;;;;;;;;;;3.00;99.90;;;;;;5077631;28;20395;-65
2023/03/02 09:07:50;;;;;;;;;;;3.10;99.90;;;;;;5076060;28;19930;-67
2023/03/02 09:10:16;;;;;;;;;;;3.20;99.90;;;;;;5075153;28;19925;-67
2023/03/02 09:12:43;;;;;;;;;;;3.30;99.90;;;;;;5076174;28;19925;-68
2023/03/02 09:15:12;;;;;;;;;;;3.30;99.90;;;;;;5075115;28;19932;-67
2023/03/02 09:17:38;;;;;;;;;;;3.40;99.90;;;;;;5079320;28;19925;-65
2023/03/02 09:20:06;;;;;;;;;;;3.60;99.90;;;;;;5078220;28;19985;-68
2023/03/02 09:22:34;;;;;;;;;;;3.60;99.90;;;;;;5078209;28;19925;-67
2023/03/02 09:25:01;;;;;;;;;;;3.70;99.90;;;;;;5075997;28;20003;-67
2023/03/02 09:27:28;;;;;;;;;;;3.80;99.90;;;;;;5077267;28;19924;-68
2023/03/02 09:29:54;;;;;;;;;;;3.90;99.90;;;;;;5076770;28;20334;-68
2023/03/02 09:32:23;;;;;;;;;;;4.00;99.90;;;;;;5071421;28;19978;-67
2023/03/02 09:34:49;;;;;;;;;;;4.10;99.90;;;;;;5077399;28;20171;-67
2023/03/02 09:37:16;;;;;;;;;;;4.20;99.90;;;;;;5074513;28;20432;-68
2023/03/02 09:39:43;;;;;;;;;;;4.30;99.90;;;;;;5079519;28;19924;-67
2023/03/02 09:42:18;;;;;;;;;;;4.40;99.90;;;;;;5076230;28;19994;-67
2023/03/02 09:44:54;;;;;;;;;;;4.60;99.90;;;;;;5075216;28;19976;-69
2023/03/02 09:47:27;;;;;;;;;;;4.70;99.90;;;;;;5071769;28;20345;-68
2023/03/02 09:49:57;;;;;;;;;;;4.80;99.90;;;;;;5078585;28;19924;-67
2023/03/02 09:52:29;;;;;;;;;;;4.80;99.90;;;;;;5074194;28;20342;-68
2023/03/02 09:54:57;;;;;;;;;;;4.90;99.90;;;;;;5085129;28;19931;-68
2023/03/02 09:57:25;;;;;;;;;;;5.00;99.90;;;;;;5073673;28;20349;-67
2023/03/02 09:59:55;;;;;;;;;;;5.10;99.90;;;;;;5076756;28;19978;-68
2023/03/02 10:02:28;;;;;;;;;;;5.30;99.90;;;;;;5074134;28;19924;-67
2023/03/02 10:04:56;;;;;;;;;;;5.30;99.90;;;;;;5073432;28;19928;-67
2023/03/02 10:07:25;;;;;;;;;;;5.50;99.90;;;;;;5070738;28;19947;-67
2023/03/02 10:09:51;;;;;;;;;;;5.50;99.90;;;;;;5076755;28;19954;-69
2023/03/02 10:12:26;;;;;;;;;;;5.70;99.90;;;;;;5076119;28;19970;-68
2023/03/02 10:14:55;;;;;;;;;;;5.80;99.90;;;;;;5071108;28;19947;-67
2023/03/02 10:17:29;;;;;;;;;;;6.00;99.90;;;;;;5073384;28;20402;-68
2023/03/02 10:19:59;;;;;;;;;;;6.20;99.90;;;;;;5071810;28;19925;-68
2023/03/02 10:22:28;;;;;;;;;;;6.30;99.90;;;;;;5073582;28;20035;-68
2023/03/02 10:24:57;;;;;;;;;;;6.60;99.90;;;;;;5069626;28;20356;-68
2023/03/02 10:27:26;;;;;;;;;;;6.70;99.90;;;;;;5073017;28;19925;-67
2023/03/02 10:29:56;;;;;;;;;;;6.80;99.90;;;;;;5075625;28;19981;-67
2023/03/02 10:32:24;;;;;;;;;;;6.90;99.90;;;;;;5073501;28;20046;-68
2023/03/02 10:34:53;;;;;;;;;;;7.00;99.90;;;;;;5073306;28;20001;-68
2023/03/02 10:37:21;;;;;;;;;;;7.30;99.90;;;;;;5070744;28;19929;-65
2023/03/02 10:39:48;;;;;;;;;;;7.50;99.90;;;;;;5071705;28;19928;-69
2023/03/02 10:42:16;;;;;;;;;;;7.70;99.90;;;;;;5073136;28;19970;-69
2023/03/02 10:44:46;;;;;;;;;;;7.90;99.90;;;;;;5069970;28;19925;-69
2023/03/02 10:47:19;;;;;;;;;;;8.20;99.90;;;;;;5074362;28;19928;-68
2023/03/02 10:49:47;;;;;;;;;;;8.50;99.90;;;;;;5069470;28;19932;-65
2023/03/02 10:52:16;;;;;;;;;;;10.00;99.90;;;;;;5070993;28;19931;-68
2023/03/02 10:54:43;;;;;;;;;;;15.40;99.90;;;;;;5071977;28;19974;-68
2023/03/02 10:57:27;;;;;;;;;;;18.90;99.90;;;;;;5072082;28;19978;-68
2023/03/02 10:59:58;;;;;;;;;;;20.70;99.90;;;;;;5070359;28;19924;-68
2023/03/02 11:02:26;;;;;;;;;;;22.00;99.90;;;;;;5072922;28;19925;-68
2023/03/02 11:04:54;;;;;;;;;;;24.70;99.90;;;;;;5068113;28;19967;-66
2023/03/02 11:07:23;;;;;;;;;;;24.20;98.90;;;;;;5073965;28;19932;-66
2023/03/02 11:09:57;;;;;;;;;;;24.40;98.00;;;;;;5078372;28;19924;-67
2023/03/02 11:12:24;;;;;;;;;;;25.60;98.00;;;;;;5074740;28;19924;-65
2023/03/02 11:15:00;;;;;;;;;;;27.80;97.70;;;;;;5078708;28;19963;-66
2023/03/02 11:17:32;;;;;;;;;;;29.10;95.70;;;;;;5075233;28;19931;-66
2023/03/02 11:19:59;;;;;;;;;;;29.10;94.60;;;;;;5070788;28;19924;-66
2023/03/02 11:22:32;;;;;;;;;;;28.70;93.70;;;;;;5072502;28;19928;-68
2023/03/02 11:25:01;;;;;;;;;;;29.70;93.40;;;;;;5071664;28;19977;-66
2023/03/02 11:27:29;;;;;;;;;;;28.90;92.00;;;;;;5071983;28;19950;-68
2023/03/02 11:29:57;;;;;;;;;;;28.50;92.70;;;;;;5074690;28;19928;-67
2023/03/02 11:32:28;;;;;;;;;;;28.70;92.20;;;;;;5075297;28;19974;-66
2023/03/02 11:34:58;;;;;;;;;;;30.30;93.10;;;;;;5070026;28;19926;-67
2023/03/02 11:37:29;;;;;;;;;;;29.90;91.20;;;;;;5072687;28;19931;-69
2023/03/02 11:40:02;;;;;;;;;;;29.50;91.30;;;;;;5073001;28;19927;-66
2023/03/02 11:42:30;;;;;;;;;;;28.30;91.00;;;;;;5073771;28;20314;-67
2023/03/02 11:45:00;;;;;;;;;;;28.10;91.20;;;;;;5074820;28;19928;-66
2023/03/02 11:47:28;;;;;;;;;;;27.90;91.00;;;;;;5073682;28;19925;-66
2023/03/02 11:49:55;;;;;;;;;;;28.10;90.70;;;;;;5064838;28;20338;-66
2023/03/02 11:52:23;;;;;;;;;;;29.50;92.00;;;;;;5072184;28;19986;-69
2023/03/02 11:54:53;;;;;;;;;;;30.00;90.70;;;;;;5074947;28;20354;-67
2023/03/02 11:57:23;;;;;;;;;;;29.60;90.70;;;;;;5074911;28;19970;-67
2023/03/02 11:59:50;;;;;;;;;;;28.20;90.00;;;;;;5077830;28;20345;-66
2023/03/02 12:02:17;;;;;;;;;;;28.50;90.60;;;;;;5076135;28;19964;-68
2023/03/02 12:04:44;;;;;;;;;;;28.50;90.50;;;;;;5078645;28;19924;-68
2023/03/02 12:07:18;;;;;;;;;;;30.00;91.10;;;;;;5071707;28;19924;-69
2023/03/02 12:09:56;;;;;;;;;;;29.70;90.20;;;;;;5078719;28;19924;-69
2023/03/02 12:12:39;;;;;;;;;;;31.10;90.40;;;;;;5077775;28;19982;-66
2023/03/02 12:15:21;;;;;;;;;;;31.00;90.20;;;;;;5077841;28;19928;-67
2023/03/02 12:17:48;;;;;;;;;;;29.80;90.80;;;;;;5078328;28;20384;-66
2023/03/02 12:20:23;;;;;;;;;;;28.80;89.30;;;;;;5081501;28;19994;-66
2023/03/02 12:22:50;;;;;;;;;;;28.10;88.80;;;;;;5078726;28;19924;-66
2023/03/02 12:25:28;;;;;;;;;;;27.40;90.00;;;;;;5077187;28;20361;-67
2023/03/02 12:27:56;;;;;;;;;;;27.60;89.80;;;;;;5082640;28;20379;-66
2023/03/02 12:30:25;;;;;;;;;;;28.60;90.10;;;;;;5075411;28;19924;-67
2023/03/02 12:33:03;;;;;;;;;;;28.60;89.80;;;;;;5078502;28;19928;-67
2023/03/02 12:35:31;;;;;;;;;;;27.60;89.00;;;;;;5076051;28;19924;-66
2023/03/02 12:38:00;;;;;;;;;;;27.70;89.60;;;;;;5073302;28;19967;-67
2023/03/02 12:40:33;;;;;;;;;;;28.80;90.00;;;;;;5075775;28;19944;-67
2023/03/02 12:43:23;;;;;;;;;;;28.20;89.70;;;;;;5072176;28;19960;-66
2023/03/02 12:46:02;;;;;;;;;;;27.10;87.60;;;;;;5062131;28;19971;-67
2023/03/02 12:48:30;;;;;;;;;;;26.00;87.90;;;;;;5075510;28;19929;-67
2023/03/02 12:50:59;;;;;;;;;;;26.10;88.80;;;;;;5079245;28;19982;-68
2023/03/02 12:53:26;;;;;;;;;;;26.30;89.10;;;;;;5075223;28;19930;-67
2023/03/02 12:55:53;;;;;;;;;;;26.80;89.50;;;;;;5078269;28;19932;-65
2023/03/02 12:58:20;;;;;;;;;;;26.60;88.40;;;;;;5072329;28;19924;-68
2023/03/02 13:00:51;;;;;;;;;;;26.30;87.80;;;;;;5075414;28;19982;-68
2023/03/02 13:03:20;;;;;;;;;;;26.60;89.30;;;;;;5075703;28;19931;-66
2023/03/02 13:05:47;;;;;;;;;;;26.80;89.10;;;;;;5075341;28;19928;-66
2023/03/02 13:08:16;;;;;;;;;;;26.00;87.50;;;;;;5073643;28;19964;-67
2023/03/02 13:10:47;;;;;;;;;;;25.80;87.90;;;;;;5076665;28;19924;-66
2023/03/02 13:13:16;;;;;;;;;;;26.80;88.50;;;;;;5075100;28;20417;-68
2023/03/02 13:15:50;;;;;;;;;;;26.50;87.80;;;;;;5077976;28;19928;-68
2023/03/02 13:18:17;;;;;;;;;;;26.40;87.60;;;;;;5078126;28;19931;-68
2023/03/02 13:20:45;;;;;;;;;;;26.60;88.30;;;;;;5077639;28;19974;-68
2023/03/02 13:23:13;;;;;;;;;;;26.80;87.50;;;;;;5072285;28;19930;-67
2023/03/02 13:25:47;;;;;;;;;;;26.50;87.10;;;;;;5077692;28;19932;-67
2023/03/02 13:28:24;;;;;;;;;;;26.30;87.70;;;;;;5074627;28;20329;-67
2023/03/02 13:30:55;;;;;;;;;;;26.10;87.10;;;;;;5079735;28;19924;-67
2023/03/02 13:33:23;;;;;;;;;;;25.70;87.40;;;;;;5075023;28;19928;-68
2023/03/02 13:35:51;;;;;;;;;;;25.20;87.50;;;;;;5078057;28;19947;-69
2023/03/02 13:38:19;;;;;;;;;;;24.90;88.40;;;;;;5074722;28;19924;-68
2023/03/02 13:40:47;;;;;;;;;;;25.10;87.90;;;;;;5076347;28;19924;-67
2023/03/02 13:43:21;;;;;;;;;;;25.00;87.10;;;;;;5074817;28;19986;-68
2023/03/02 13:45:52;;;;;;;;;;;24.10;86.10;;;;;;5079490;28;19932;-68
2023/03/02 13:48:19;;;;;;;;;;;23.60;85.60;;;;;;5082822;28;19982;-68
2023/03/02 13:50:56;;;;;;;;;;;22.80;86.60;;;;;;5075180;28;19978;-68
2023/03/02 13:53:23;;;;;;;;;;;22.50;87.00;;;;;;5077645;28;19925;-68
2023/03/02 13:55:51;;;;;;;;;;;22.70;86.50;;;;;;5073559;28;19931;-67
2023/03/02 13:58:18;;;;;;;;;;;22.60;87.00;;;;;;5074527;28;19925;-68
2023/03/02 14:00:45;;;;;;;;;;;22.60;86.10;;;;;;5077459;28;20001;-68
2023/03/02 14:03:21;;;;;;;;;;;22.50;86.80;;;;;;5075029;28;19924;-70
2023/03/02 14:05:47;;;;;;;;;;;21.50;85.90;;;;;;5081175;28;19925;-68
2023/03/02 14:08:16;;;;;;;;;;;21.80;86.60;;;;;;5075552;28;19924;-68
2023/03/02 14:10:42;;;;;;;;;;;21.60;86.10;;;;;;5078992;28;19924;-69
2023/03/02 14:13:10;;;;;;;;;;;21.80;86.20;;;;;;5076901;28;20411;-67
2023/03/02 14:15:40;;;;;;;;;;;22.00;86.30;;;;;;5078160;28;19924;-68
2023/03/02 14:18:13;;;;;;;;;;;21.70;85.00;;;;;;5077776;28;19924;-68
2023/03/02 14:20:40;;;;;;;;;;;21.80;85.80;;;;;;5074547;28;19925;-68
2023/03/02 14:23:08;;;;;;;;;;;21.80;86.50;;;;;;5072655;28;20387;-68
2023/03/02 14:25:36;;;;;;;;;;;21.90;86.50;;;;;;5079319;28;19924;-67
2023/03/02 14:28:03;;;;;;;;;;;21.80;87.10;;;;;;5076418;28;19924;-68